East Lothian, United Kingdom

4:14 PM BST on August 30, 2016 (GMT +0100)
east lothian | | Change Station

Elev 46 ft 56.05 °N, 2.80 °W | Updated 20 days ago

Clear
Clear
63 °F
Feels Like 63 °F
N
18
Wind Variable Wind from SSW
Gusts 22 mph

Today
High -- | Low -- °F
--% Chance of Precip.
Yesterday
High -- | Low -- °F
Precip. -- in
Pressure 30.01 in
Visibility 6.2 miles
Clouds Few 3800 ft
Scattered Clouds 15000 ft
Dew Point 56 °F
Humidity 78%
Rainfall in
Snow Depth Not available.
6:12 AM 8:09 PM
Waning Crescent, 3% visible
METAR EGQL 301450Z 23013KT 9999 FEW038 SCT150 24/14 Q1016 BLU
Pressure 30.01 in
Visibility 6.2 miles
Clouds Few 3800 ft
Scattered Clouds 15000 ft
Dew Point 56 °F
Humidity 78%
Rainfall in
Snow Depth Not available.
6:12 AM 8:09 PM
Waning Crescent, 3% visible
METAR EGQL 301450Z 23013KT 9999 FEW038 SCT150 24/14 Q1016 BLU

10-Day Weather Forecast

×

Almanac

Astronomy

Aug. 30, 2016 Rise Set
Actual Time
Civil Twilight
Nautical Twilight
Astronomical Twilight
Moon
Length of Visible Light
Length of Day
Tomorrow will be .
, % of the Moon is Illuminated

Today's Extremes

Country Highs Country Lows

Community

WunderPhotos

Upload Photos

1,935,855 photos uploaded!

WunderBlog® & News

Nearby

Air Quality

  Air Quality AQ Index Pollutant
Not available.

Snow Depth

Station Depth Elevation

Earthquake Activity

City Distance Mag. Time & Date
Minimum magnitude displayed is 2.5.

Coastal Water Temperatures

Place Temperature

Stations

Nearby Weather Stations

Station Location Temp. Windchill Dew Point Humidity Wind Precip. Elev Updated Type